createdAt,value
2022-11-16T00:01:34.347Z,3.08
2022-11-16T00:04:02.417Z,3.22
2022-11-16T00:06:29.626Z,3.30
2022-11-16T00:09:17.584Z,3.65
2022-11-16T00:11:44.969Z,3.20
2022-11-16T00:14:11.986Z,3.47
2022-11-16T00:16:39.337Z,3.25
2022-11-16T00:19:06.955Z,3.92
2022-11-16T00:21:34.410Z,4.03
2022-11-16T00:24:01.828Z,3.60
2022-11-16T00:26:28.923Z,3.30
2022-11-16T00:28:56.487Z,3.75
2022-11-16T00:31:24.358Z,2.58
2022-11-16T00:33:52.013Z,3.40
2022-11-16T00:36:19.184Z,3.10
2022-11-16T00:38:46.026Z,3.35
2022-11-16T00:41:12.980Z,3.22
2022-11-16T00:43:39.791Z,3.25
2022-11-16T00:46:06.670Z,3.20
2022-11-16T00:48:33.920Z,3.08
2022-11-16T00:51:00.975Z,3.25
2022-11-16T00:53:27.946Z,3.15
2022-11-16T00:55:54.780Z,2.83
2022-11-16T00:58:22.093Z,3.10
2022-11-16T01:00:48.919Z,3.10
2022-11-16T01:03:15.765Z,3.50
2022-11-16T01:05:42.543Z,3.92
2022-11-16T01:08:09.645Z,3.25
2022-11-16T01:10:39.964Z,2.78
2022-11-16T01:13:06.857Z,3.45
2022-11-16T01:15:33.891Z,3.28
2022-11-16T01:18:00.691Z,2.88
2022-11-16T01:20:29.523Z,2.92
2022-11-16T01:22:56.609Z,2.97
2022-11-16T01:25:23.409Z,2.95
2022-11-16T01:27:50.284Z,3.20
2022-11-16T01:30:17.196Z,2.65
2022-11-16T01:32:44.136Z,3.22
2022-11-16T01:35:15.815Z,2.38
2022-11-16T01:37:42.840Z,3.28
2022-11-16T01:40:11.183Z,2.60
2022-11-16T01:42:38.058Z,3.28
2022-11-16T01:45:27.992Z,2.80
2022-11-16T01:47:55.361Z,2.40
2022-11-16T01:50:23.091Z,2.97
2022-11-16T01:52:57.052Z,3.20
2022-11-16T01:55:25.065Z,3.35
2022-11-16T01:57:51.946Z,2.15
2022-11-16T02:00:19.356Z,2.83
2022-11-16T02:02:46.144Z,2.72
2022-11-16T02:05:17.963Z,2.67
2022-11-16T02:08:14.832Z,2.60
2022-11-16T02:11:12.747Z,2.95
2022-11-16T02:13:42.497Z,2.65
2022-11-16T02:16:15.397Z,3.13
2022-11-16T02:19:14.324Z,2.67
2022-11-16T02:21:42.696Z,2.50
2022-11-16T02:25:03.947Z,2.88
2022-11-16T02:28:02.165Z,3.55
2022-11-16T02:30:29.206Z,2.97
2022-11-16T02:33:09.221Z,2.50
2022-11-16T02:35:45.201Z,2.65
2022-11-16T02:38:17.407Z,2.53
2022-11-16T02:40:48.184Z,3.25
2022-11-16T02:43:26.427Z,2.53
2022-11-16T02:45:57.142Z,2.72
2022-11-16T02:48:29.351Z,2.60
2022-11-16T02:50:56.864Z,3.05
2022-11-16T02:53:25.630Z,3.38
2022-11-16T02:55:52.665Z,3.70
2022-11-16T02:58:25.504Z,3.25
2022-11-16T03:01:06.147Z,2.58
2022-11-16T03:03:54.615Z,2.83
2022-11-16T03:06:29.002Z,3.08
2022-11-16T03:09:05.917Z,3.28
2022-11-16T03:11:54.690Z,3.10
2022-11-16T03:14:26.730Z,3.53
2022-11-16T03:16:57.615Z,3.20
2022-11-16T03:19:33.478Z,2.72
2022-11-16T03:22:07.265Z,3.17
2022-11-16T03:24:34.250Z,3.40
2022-11-16T03:27:07.394Z,3.53
2022-11-16T03:30:00.344Z,3.08
2022-11-16T03:32:39.815Z,3.63
2022-11-16T03:35:25.156Z,3.38
2022-11-16T03:37:56.277Z,2.90
2022-11-16T03:40:25.394Z,3.15
2022-11-16T03:42:52.694Z,3.83
2022-11-16T03:45:20.359Z,3.47
2022-11-16T03:47:47.294Z,2.92
2022-11-16T03:50:15.138Z,3.67
2022-11-16T03:52:41.984Z,3.60
2022-11-16T03:55:09.236Z,3.55
2022-11-16T03:57:35.990Z,4.05
2022-11-16T04:00:03.742Z,3.78
2022-11-16T04:02:30.551Z,3.92
2022-11-16T04:05:15.959Z,4.45
2022-11-16T04:08:02.321Z,3.75
2022-11-16T04:10:48.119Z,4.50
2022-11-16T04:13:34.946Z,4.15
2022-11-16T04:16:20.326Z,3.53
2022-11-16T04:19:07.367Z,4.07
2022-11-16T04:22:14.879Z,3.72
2022-11-16T04:24:46.632Z,5.15
2022-11-16T04:27:34.146Z,5.10
2022-11-16T04:30:02.682Z,4.55
2022-11-16T04:32:48.142Z,4.18
2022-11-16T04:35:33.466Z,4.47
2022-11-16T04:38:00.280Z,5.63
2022-11-16T04:40:30.465Z,4.57
2022-11-16T04:43:03.365Z,4.25
2022-11-16T04:45:49.262Z,4.32
2022-11-16T04:48:18.397Z,5.10
2022-11-16T04:50:47.235Z,4.90
2022-11-16T04:53:14.949Z,5.00
2022-11-16T04:55:41.724Z,4.70
2022-11-16T04:58:08.779Z,5.03
2022-11-16T05:00:35.589Z,4.10
2022-11-16T05:03:04.560Z,5.20
2022-11-16T05:05:31.391Z,5.05
2022-11-16T05:07:58.153Z,4.32
2022-11-16T05:10:24.979Z,4.63
2022-11-16T05:12:51.751Z,4.80
2022-11-16T05:15:19.780Z,5.18
2022-11-16T05:17:47.457Z,5.18
2022-11-16T05:20:33.066Z,4.60
2022-11-16T05:23:00.009Z,5.13
2022-11-16T05:25:28.553Z,4.78
2022-11-16T05:27:58.183Z,4.57
2022-11-16T05:30:24.993Z,4.85
2022-11-16T05:32:51.807Z,4.85
2022-11-16T05:35:18.603Z,5.32
2022-11-16T05:37:45.466Z,4.65
2022-11-16T05:40:12.598Z,4.85
2022-11-16T05:42:39.411Z,5.80
2022-11-16T05:45:06.788Z,4.90
2022-11-16T05:47:33.543Z,5.53
2022-11-16T05:50:00.326Z,5.32
2022-11-16T05:52:27.263Z,5.97
2022-11-16T05:54:54.042Z,5.57
2022-11-16T05:57:20.893Z,5.97
2022-11-16T05:59:47.699Z,5.85
2022-11-16T06:02:14.541Z,5.07
2022-11-16T06:04:41.303Z,5.32
2022-11-16T06:07:08.179Z,5.45
2022-11-16T06:09:35.219Z,5.40
2022-11-16T06:12:02.037Z,6.07
2022-11-16T06:14:28.990Z,5.55
2022-11-16T06:16:55.735Z,5.47
2022-11-16T06:19:22.591Z,6.47
2022-11-16T06:21:49.436Z,5.78
2022-11-16T06:24:16.224Z,7.22
2022-11-16T06:26:43.069Z,5.60
2022-11-16T06:29:09.941Z,6.07
2022-11-16T06:31:36.717Z,5.55
2022-11-16T06:34:03.601Z,6.72
2022-11-16T06:36:30.469Z,6.18
2022-11-16T06:39:00.987Z,6.05
2022-11-16T06:41:27.889Z,6.93
2022-11-16T06:43:54.922Z,6.50
2022-11-16T06:46:21.964Z,6.78
2022-11-16T06:48:48.787Z,6.78
2022-11-16T06:51:15.654Z,6.68
2022-11-16T06:53:42.499Z,6.40
2022-11-16T06:56:13.148Z,7.38
2022-11-16T06:58:42.805Z,6.70
2022-11-16T07:01:11.698Z,6.63
2022-11-16T07:03:38.836Z,6.72
2022-11-16T07:06:10.490Z,6.75
2022-11-16T07:08:37.854Z,6.75
2022-11-16T07:11:09.382Z,5.82
2022-11-16T07:13:37.517Z,6.47
2022-11-16T07:16:06.195Z,5.82
2022-11-16T07:18:35.432Z,6.53
2022-11-16T07:21:20.691Z,6.18
2022-11-16T07:23:47.446Z,5.20
2022-11-16T07:26:14.246Z,6.03
2022-11-16T07:28:47.728Z,6.00
2022-11-16T07:31:16.193Z,6.47
2022-11-16T07:33:43.393Z,6.00
2022-11-16T07:36:13.485Z,6.57
2022-11-16T07:38:40.914Z,5.75
2022-11-16T07:41:10.996Z,6.40
2022-11-16T07:43:37.978Z,5.65
2022-11-16T07:46:46.135Z,6.85
2022-11-16T07:48:58.473Z,7.70
2022-11-16T07:51:25.592Z,6.03
2022-11-16T07:53:55.994Z,6.72
2022-11-16T07:56:23.062Z,6.18
2022-11-16T07:58:50.426Z,6.63
2022-11-16T08:01:18.545Z,6.38
2022-11-16T08:03:46.705Z,5.72
2022-11-16T08:06:13.532Z,6.32
2022-11-16T08:08:40.687Z,5.78
2022-11-16T08:11:09.602Z,5.93
2022-11-16T08:13:38.484Z,6.80
2022-11-16T08:16:13.963Z,6.22
2022-11-16T08:18:41.793Z,5.57
2022-11-16T08:21:11.357Z,5.75
2022-11-16T08:23:40.204Z,6.78
2022-11-16T08:26:09.471Z,6.88
2022-11-16T08:28:37.224Z,6.10
2022-11-16T08:31:12.690Z,5.32
2022-11-16T08:33:39.628Z,5.82
2022-11-16T08:36:12.664Z,6.25
2022-11-16T08:41:08.045Z,4.95
2022-11-16T08:43:35.902Z,6.38
2022-11-16T08:46:03.400Z,6.70
2022-11-16T08:48:30.706Z,5.50
2022-11-16T08:51:18.641Z,7.22
2022-11-16T08:53:48.105Z,5.65
2022-11-16T08:56:16.424Z,6.22
2022-11-16T08:58:47.403Z,6.55
2022-11-16T09:01:17.584Z,6.63
2022-11-16T09:03:45.192Z,6.50
2022-11-16T09:06:12.996Z,5.93
2022-11-16T09:08:41.936Z,7.38
2022-11-16T09:11:17.882Z,6.82
2022-11-16T09:13:46.340Z,6.70
2022-11-16T09:16:16.609Z,7.13
2022-11-16T09:18:46.887Z,5.78
2022-11-16T09:21:25.022Z,5.95
2022-11-16T09:23:53.724Z,6.45
2022-11-16T09:26:23.189Z,6.13
2022-11-16T09:28:58.440Z,6.18
2022-11-16T09:31:29.429Z,6.55
2022-11-16T09:33:58.884Z,6.10
2022-11-16T09:36:27.738Z,5.35
2022-11-16T09:39:23.651Z,4.72
2022-11-16T09:41:47.815Z,6.22
2022-11-16T09:44:29.569Z,5.57
2022-11-16T09:46:59.028Z,6.57
2022-11-16T09:49:31.089Z,5.25
2022-11-16T09:52:05.384Z,5.45
2022-11-16T09:54:37.903Z,5.45
2022-11-16T09:57:12.445Z,5.47
2022-11-16T09:59:49.876Z,4.70
2022-11-16T10:02:34.799Z,4.45
2022-11-16T10:07:38.709Z,4.30
2022-11-16T10:10:06.334Z,5.13
2022-11-16T10:12:43.845Z,4.25
2022-11-16T10:16:00.294Z,4.90
2022-11-16T10:18:45.962Z,5.05
2022-11-16T10:21:16.780Z,4.25
2022-11-16T10:24:04.041Z,4.25
2022-11-16T10:27:21.977Z,4.18
2022-11-16T10:30:02.058Z,4.10
2022-11-16T10:32:36.914Z,3.70
2022-11-16T10:35:13.065Z,3.70
2022-11-16T10:37:45.408Z,4.55
2022-11-16T10:40:20.444Z,3.45
2022-11-16T10:43:00.187Z,3.35
2022-11-16T10:46:05.720Z,2.72
2022-11-16T10:51:09.814Z,2.42
2022-11-16T10:53:42.403Z,3.00
2022-11-16T10:56:32.055Z,2.47
2022-11-16T10:59:00.076Z,2.53
2022-11-16T11:01:57.716Z,2.63
2022-11-16T11:04:31.671Z,2.67
2022-11-16T11:07:00.979Z,2.95
2022-11-16T11:09:33.665Z,2.97
2022-11-16T11:12:34.039Z,3.05
2022-11-16T11:15:25.833Z,2.08
2022-11-16T11:18:12.168Z,1.92
2022-11-16T11:20:44.729Z,1.27
2022-11-16T11:23:21.783Z,1.40
2022-11-16T11:26:00.382Z,1.63
2022-11-16T11:28:53.751Z,2.25
2022-11-16T11:31:27.181Z,1.60
2022-11-16T11:33:58.234Z,2.05
2022-11-16T11:36:40.521Z,0.98
2022-11-16T11:39:13.533Z,1.10
2022-11-16T11:41:45.286Z,0.93
2022-11-16T11:44:17.635Z,1.17
2022-11-16T11:47:42.434Z,1.50
2022-11-16T11:49:50.132Z,1.30
2022-11-16T11:52:21.821Z,0.88
2022-11-16T11:54:50.906Z,1.45
2022-11-16T11:57:23.292Z,1.35
2022-11-16T11:59:52.742Z,1.23
2022-11-16T12:02:49.065Z,1.13
2022-11-16T12:05:21.670Z,1.50
2022-11-16T12:08:00.441Z,0.95
2022-11-16T12:10:58.010Z,0.95
2022-11-16T12:13:48.002Z,0.95
2022-11-16T12:16:20.814Z,1.25
2022-11-16T12:19:09.620Z,1.30
2022-11-16T12:22:18.017Z,0.90
2022-11-16T12:25:17.180Z,0.70
2022-11-16T12:28:35.290Z,0.82
2022-11-16T12:31:36.513Z,1.00
2022-11-16T12:34:12.062Z,1.13
2022-11-16T12:37:00.004Z,1.00
2022-11-16T12:39:54.653Z,1.25
2022-11-16T12:42:32.804Z,0.90
2022-11-16T12:44:59.513Z,2.15
2022-11-16T12:48:04.046Z,1.00
2022-11-16T12:50:43.041Z,0.88
2022-11-16T12:53:26.806Z,2.28
2022-11-16T12:56:19.554Z,1.50
2022-11-16T12:59:04.479Z,0.70
2022-11-16T13:01:41.208Z,1.52
2022-11-16T13:04:31.776Z,0.63
2022-11-16T13:07:11.176Z,1.00
2022-11-16T13:09:43.933Z,0.82
2022-11-16T13:12:17.159Z,0.40
2022-11-16T13:14:47.834Z,1.55
2022-11-16T13:17:38.489Z,0.30
2022-11-16T13:20:27.362Z,0.52
2022-11-16T13:23:06.117Z,0.60
2022-11-16T13:25:58.310Z,0.95
2022-11-16T13:28:40.332Z,1.20
2022-11-16T13:31:31.694Z,0.68
2022-11-16T13:34:15.952Z,0.95
2022-11-16T13:36:45.266Z,1.10
2022-11-16T13:39:22.348Z,0.85
2022-11-16T13:42:05.078Z,0.93
2022-11-16T13:44:32.533Z,0.70
2022-11-16T13:47:28.894Z,0.93
2022-11-16T13:49:59.528Z,0.93
2022-11-16T13:54:10.746Z,1.00
2022-11-16T13:55:46.483Z,2.58
2022-11-16T13:58:21.090Z,1.00
2022-11-16T14:01:18.092Z,0.85
2022-11-16T14:03:51.659Z,0.95
2022-11-16T14:06:24.447Z,0.73
2022-11-16T14:08:58.868Z,0.70
2022-11-16T14:11:39.648Z,1.13
2022-11-16T14:14:33.758Z,0.90
2022-11-16T14:17:00.585Z,0.60
2022-11-16T14:19:49.196Z,0.73
2022-11-16T14:23:06.951Z,0.60
2022-11-16T14:25:49.139Z,0.70
2022-11-16T14:28:25.182Z,0.75
2022-11-16T14:31:24.758Z,0.60
2022-11-16T14:33:54.377Z,0.95
2022-11-16T14:36:43.151Z,0.95
2022-11-16T14:39:25.351Z,0.90
2022-11-16T14:41:53.204Z,0.85
2022-11-16T14:44:22.706Z,1.38
2022-11-16T14:46:49.525Z,0.90
2022-11-16T14:49:20.347Z,0.57
2022-11-16T14:51:54.442Z,0.90
2022-11-16T14:54:52.440Z,0.45
2022-11-16T14:57:21.715Z,0.70
2022-11-16T14:59:49.185Z,0.90
2022-11-16T15:02:26.372Z,0.68
2022-11-16T15:04:53.880Z,1.30
2022-11-16T15:07:24.035Z,1.25
2022-11-16T15:09:54.438Z,1.15
2022-11-16T15:12:43.998Z,0.80
2022-11-16T15:15:10.764Z,1.00
2022-11-16T15:17:40.582Z,1.13
2022-11-16T15:20:20.630Z,1.13
2022-11-16T15:22:51.525Z,1.77
2022-11-16T15:25:29.610Z,1.20
2022-11-16T15:27:58.649Z,1.60
2022-11-16T15:30:29.378Z,1.05
2022-11-16T15:32:56.749Z,1.92
2022-11-16T15:35:31.310Z,1.13
2022-11-16T15:38:13.814Z,1.88
2022-11-16T15:40:53.991Z,1.38
2022-11-16T15:43:24.103Z,0.75
2022-11-16T15:45:51.402Z,1.52
2022-11-16T15:48:23.957Z,1.10
2022-11-16T15:51:17.038Z,0.85
2022-11-16T15:53:46.504Z,1.00
2022-11-16T15:56:26.417Z,1.05
2022-11-16T15:58:54.831Z,0.70
2022-11-16T16:01:23.065Z,1.33
2022-11-16T16:03:55.954Z,0.70
2022-11-16T16:06:55.167Z,1.20
2022-11-16T16:09:38.764Z,1.05
2022-11-16T16:12:21.896Z,1.33
2022-11-16T16:14:50.465Z,1.30
2022-11-16T16:17:25.898Z,1.45
2022-11-16T16:20:05.145Z,1.70
2022-11-16T16:22:34.446Z,2.35
2022-11-16T16:25:02.024Z,1.52
2022-11-16T16:27:30.835Z,1.10
2022-11-16T16:30:02.594Z,1.92
2022-11-16T16:32:31.410Z,1.55
2022-11-16T16:35:00.551Z,2.13
2022-11-16T16:37:31.891Z,2.35
2022-11-16T16:39:59.720Z,1.77
2022-11-16T16:42:26.627Z,1.65
2022-11-16T16:44:53.854Z,2.17
2022-11-16T16:47:21.005Z,2.10
2022-11-16T16:49:48.740Z,2.20
2022-11-16T16:52:16.058Z,2.72
2022-11-16T16:54:44.962Z,2.85
2022-11-16T16:57:16.505Z,2.47
2022-11-16T16:59:48.346Z,2.15
2022-11-16T17:02:16.336Z,2.28
2022-11-16T17:04:49.730Z,2.10
2022-11-16T17:07:16.832Z,2.00
2022-11-16T17:09:43.871Z,2.30
2022-11-16T17:12:11.065Z,2.20
2022-11-16T17:14:38.248Z,2.42
2022-11-16T17:17:05.483Z,2.88
2022-11-16T17:19:32.248Z,2.33
2022-11-16T17:21:59.986Z,2.28
2022-11-16T17:24:26.931Z,2.38
2022-11-16T17:26:53.876Z,2.30
2022-11-16T17:29:20.656Z,2.03
2022-11-16T17:31:47.737Z,2.58
2022-11-16T17:34:14.770Z,2.40
2022-11-16T17:36:42.576Z,2.00
2022-11-16T17:39:09.494Z,2.03
2022-11-16T17:41:36.326Z,2.22
2022-11-16T17:44:03.967Z,2.67
2022-11-16T17:46:30.734Z,2.33
2022-11-16T17:48:57.554Z,2.55
2022-11-16T17:51:25.861Z,2.67
2022-11-16T17:53:52.910Z,2.80
2022-11-16T17:56:28.629Z,3.50
2022-11-16T17:58:58.362Z,3.42
2022-11-16T18:01:27.081Z,3.72
2022-11-16T18:03:54.383Z,5.63
2022-11-16T18:06:23.454Z,5.00
2022-11-16T18:08:50.302Z,6.70
2022-11-16T18:11:25.242Z,6.32
2022-11-16T18:13:54.002Z,7.47
2022-11-16T18:16:22.984Z,8.63
2022-11-16T18:18:55.894Z,9.15
2022-11-16T18:21:22.703Z,7.60
2022-11-16T18:23:49.560Z,8.35
2022-11-16T18:26:20.502Z,7.68
2022-11-16T18:28:51.924Z,9.73
2022-11-16T18:31:21.657Z,10.02
2022-11-16T18:33:49.313Z,9.68
2022-11-16T18:36:17.358Z,10.75
2022-11-16T18:38:44.434Z,11.02
2022-11-16T18:41:16.785Z,12.10
2022-11-16T18:43:51.509Z,10.95
2022-11-16T18:46:19.843Z,10.95
2022-11-16T18:48:46.900Z,11.82
2022-11-16T18:51:15.562Z,11.85
2022-11-16T18:53:42.941Z,11.13
2022-11-16T18:56:11.838Z,11.82
2022-11-16T18:58:54.608Z,14.35
2022-11-16T19:01:26.360Z,13.77
2022-11-16T19:03:54.326Z,12.05
2022-11-16T19:06:22.488Z,12.23
2022-11-16T19:08:56.539Z,12.23
2022-11-16T19:11:24.093Z,14.15
2022-11-16T19:13:56.976Z,14.10
2022-11-16T19:16:24.882Z,11.75
2022-11-16T19:18:52.116Z,11.45
2022-11-16T19:21:19.330Z,13.10
2022-11-16T19:23:48.470Z,18.35
2022-11-16T19:26:17.974Z,16.48
2022-11-16T19:28:47.056Z,19.25
2022-11-16T19:31:35.625Z,18.67
2022-11-16T19:34:05.578Z,11.52
2022-11-16T19:36:33.922Z,13.20
2022-11-16T19:39:00.775Z,12.10
2022-11-16T19:41:28.417Z,14.02
2022-11-16T19:43:59.899Z,12.20
2022-11-16T19:46:28.782Z,11.07
2022-11-16T19:48:56.659Z,11.18
2022-11-16T19:51:25.952Z,12.75
2022-11-16T19:53:53.247Z,11.35
2022-11-16T19:56:21.898Z,11.25
2022-11-16T19:58:48.978Z,11.48
2022-11-16T20:01:27.562Z,12.02
2022-11-16T20:03:56.396Z,11.27
2022-11-16T20:06:26.520Z,10.75
2022-11-16T20:08:55.984Z,9.80
2022-11-16T20:11:27.897Z,10.35
2022-11-16T20:13:56.510Z,9.40
2022-11-16T20:16:26.069Z,9.32
2022-11-16T20:18:53.799Z,10.95
2022-11-16T20:21:34.959Z,11.35
2022-11-16T20:24:06.825Z,11.65
2022-11-16T20:26:35.333Z,10.07
2022-11-16T20:29:02.455Z,10.40
2022-11-16T20:31:31.439Z,10.27
2022-11-16T20:34:03.248Z,9.13
2022-11-16T20:36:32.342Z,9.57
2022-11-16T20:39:00.825Z,10.02
2022-11-16T20:41:29.916Z,8.57
2022-11-16T20:44:01.537Z,9.50
2022-11-16T20:46:33.381Z,8.45
2022-11-16T20:49:03.422Z,9.77
2022-11-16T20:51:30.463Z,10.52
2022-11-16T20:53:57.705Z,9.65
2022-11-16T20:56:24.628Z,8.98
2022-11-16T20:58:51.414Z,9.85
2022-11-16T21:01:28.988Z,9.52
2022-11-16T21:03:57.335Z,9.48
2022-11-16T21:06:24.481Z,9.77
2022-11-16T21:08:52.016Z,9.45
2022-11-16T21:11:22.989Z,8.80
2022-11-16T21:14:08.271Z,8.55
2022-11-16T21:16:36.011Z,8.98
2022-11-16T21:19:03.659Z,8.27
2022-11-16T21:21:30.838Z,9.55
2022-11-16T21:23:58.077Z,9.82
2022-11-16T21:26:27.730Z,9.48
2022-11-16T21:28:55.744Z,9.65
2022-11-16T21:31:29.630Z,8.95
2022-11-16T21:33:57.458Z,10.13
2022-11-16T21:36:26.614Z,9.98
2022-11-16T21:38:53.810Z,8.95
2022-11-16T21:41:22.542Z,10.90
2022-11-16T21:43:49.678Z,9.05
2022-11-16T21:46:22.146Z,10.30
2022-11-16T21:48:51.310Z,9.05
2022-11-16T21:51:20.280Z,9.40
2022-11-16T21:53:47.590Z,8.93
2022-11-16T21:56:16.843Z,8.88
2022-11-16T21:58:44.150Z,8.63
2022-11-16T22:01:13.370Z,9.23
2022-11-16T22:03:40.379Z,9.32
2022-11-16T22:06:30.034Z,8.48
2022-11-16T22:08:56.849Z,8.60
2022-11-16T22:11:23.662Z,9.15
2022-11-16T22:13:51.018Z,7.63
2022-11-16T22:16:21.363Z,8.30
2022-11-16T22:18:48.204Z,9.10
2022-11-16T22:21:14.976Z,7.97
2022-11-16T22:23:42.146Z,9.13
2022-11-16T22:26:11.312Z,7.18
2022-11-16T22:28:39.050Z,8.98
2022-11-16T22:31:10.986Z,8.48
2022-11-16T22:33:38.825Z,7.72
2022-11-16T22:36:09.264Z,8.75
2022-11-16T22:38:36.679Z,8.48
2022-11-16T22:41:03.682Z,9.48
2022-11-16T22:43:31.236Z,8.77
2022-11-16T22:46:04.582Z,8.15
2022-11-16T22:48:37.850Z,8.55
2022-11-16T22:51:16.562Z,7.82
2022-11-16T22:53:43.562Z,7.10
2022-11-16T22:56:10.696Z,7.63
2022-11-16T22:58:39.130Z,8.30
2022-11-16T23:01:07.828Z,8.65
2022-11-16T23:03:35.586Z,9.57
2022-11-16T23:06:03.740Z,8.95
2022-11-16T23:08:30.733Z,7.25
2022-11-16T23:11:23.184Z,8.77
2022-11-16T23:14:09.559Z,8.88
2022-11-16T23:16:38.259Z,7.93
2022-11-16T23:19:26.221Z,7.97
2022-11-16T23:22:11.629Z,8.25
2022-11-16T23:24:56.874Z,8.38
2022-11-16T23:27:30.601Z,7.45
2022-11-16T23:30:03.120Z,8.18
2022-11-16T23:32:31.245Z,7.70
2022-11-16T23:34:58.303Z,7.63
2022-11-16T23:37:25.110Z,8.13
2022-11-16T23:39:51.883Z,8.18
2022-11-16T23:42:37.003Z,8.63
2022-11-16T23:45:04.262Z,8.23
2022-11-16T23:47:31.043Z,7.40
2022-11-16T23:49:57.808Z,8.95
2022-11-16T23:52:24.604Z,8.93
2022-11-16T23:54:51.397Z,7.28
2022-11-16T23:57:18.241Z,7.75
2022-11-16T23:59:45.015Z,7.25
